sensor_id;sensor_type;location;lat;lon;timestamp;P1;durP1;ratioP1;P2;durP2;ratioP2
5682;SDS011;2864;49.220;8.654;2022-09-29T00:01:22;7.57;;;3.93;;
5682;SDS011;2864;49.220;8.654;2022-09-29T00:03:48;6.67;;;4.80;;
5682;SDS011;2864;49.220;8.654;2022-09-29T00:06:14;11.83;;;5.40;;
5682;SDS011;2864;49.220;8.654;2022-09-29T00:08:41;10.67;;;4.73;;
5682;SDS011;2864;49.220;8.654;2022-09-29T00:11:12;8.10;;;4.80;;
5682;SDS011;2864;49.220;8.654;2022-09-29T00:13:40;6.03;;;4.60;;
5682;SDS011;2864;49.220;8.654;2022-09-29T00:16:06;7.23;;;4.70;;
5682;SDS011;2864;49.220;8.654;2022-09-29T00:18:32;9.00;;;4.50;;
5682;SDS011;2864;49.220;8.654;2022-09-29T00:20:59;7.83;;;4.30;;
5682;SDS011;2864;49.220;8.654;2022-09-29T00:23:33;10.10;;;4.67;;
5682;SDS011;2864;49.220;8.654;2022-09-29T00:28:34;7.57;;;4.33;;
5682;SDS011;2864;49.220;8.654;2022-09-29T00:31:01;7.60;;;4.07;;
5682;SDS011;2864;49.220;8.654;2022-09-29T00:33:29;7.53;;;4.00;;
5682;SDS011;2864;49.220;8.654;2022-09-29T00:35:59;11.77;;;4.17;;
5682;SDS011;2864;49.220;8.654;2022-09-29T00:38:45;7.13;;;4.10;;
5682;SDS011;2864;49.220;8.654;2022-09-29T00:41:13;9.00;;;4.30;;
5682;SDS011;2864;49.220;8.654;2022-09-29T00:49:22;10.10;;;4.80;;
5682;SDS011;2864;49.220;8.654;2022-09-29T00:52:00;8.20;;;4.77;;
5682;SDS011;2864;49.220;8.654;2022-09-29T00:54:43;7.33;;;4.70;;
5682;SDS011;2864;49.220;8.654;2022-09-29T00:57:13;6.47;;;4.40;;
5682;SDS011;2864;49.220;8.654;2022-09-29T00:59:43;9.53;;;5.30;;
5682;SDS011;2864;49.220;8.654;2022-09-29T01:02:17;8.40;;;4.90;;
5682;SDS011;2864;49.220;8.654;2022-09-29T01:04:44;10.27;;;4.70;;
5682;SDS011;2864;49.220;8.654;2022-09-29T01:07:12;9.80;;;5.33;;
5682;SDS011;2864;49.220;8.654;2022-09-29T01:09:38;13.40;;;4.77;;
5682;SDS011;2864;49.220;8.654;2022-09-29T01:12:05;7.60;;;4.90;;
5682;SDS011;2864;49.220;8.654;2022-09-29T01:14:31;9.53;;;5.10;;
5682;SDS011;2864;49.220;8.654;2022-09-29T01:16:59;8.80;;;4.90;;
5682;SDS011;2864;49.220;8.654;2022-09-29T01:19:38;7.80;;;5.20;;
5682;SDS011;2864;49.220;8.654;2022-09-29T01:41:35;8.10;;;4.70;;
5682;SDS011;2864;49.220;8.654;2022-09-29T01:49:42;14.00;;;8.50;;
5682;SDS011;2864;49.220;8.654;2022-09-29T01:52:18;14.50;;;8.13;;
5682;SDS011;2864;49.220;8.654;2022-09-29T01:54:49;11.80;;;7.83;;
5682;SDS011;2864;49.220;8.654;2022-09-29T01:57:27;13.27;;;8.93;;
5682;SDS011;2864;49.220;8.654;2022-09-29T02:00:10;11.57;;;8.10;;
5682;SDS011;2864;49.220;8.654;2022-09-29T02:05:20;7.23;;;5.70;;
5682;SDS011;2864;49.220;8.654;2022-09-29T02:07:51;9.23;;;5.10;;
5682;SDS011;2864;49.220;8.654;2022-09-29T02:10:29;11.97;;;5.00;;
5682;SDS011;2864;49.220;8.654;2022-09-29T02:12:58;7.90;;;4.80;;
5682;SDS011;2864;49.220;8.654;2022-09-29T02:15:30;11.87;;;4.90;;
5682;SDS011;2864;49.220;8.654;2022-09-29T02:18:02;5.13;;;4.50;;
5682;SDS011;2864;49.220;8.654;2022-09-29T02:20:33;5.50;;;4.43;;
5682;SDS011;2864;49.220;8.654;2022-09-29T02:22:59;6.73;;;4.80;;
5682;SDS011;2864;49.220;8.654;2022-09-29T02:25:25;8.77;;;4.97;;
5682;SDS011;2864;49.220;8.654;2022-09-29T02:27:51;6.73;;;4.37;;
5682;SDS011;2864;49.220;8.654;2022-09-29T02:30:17;6.80;;;4.40;;
5682;SDS011;2864;49.220;8.654;2022-09-29T02:32:45;7.43;;;5.10;;
5682;SDS011;2864;49.220;8.654;2022-09-29T02:35:11;6.50;;;4.33;;
5682;SDS011;2864;49.220;8.654;2022-09-29T02:37:45;8.10;;;4.60;;
5682;SDS011;2864;49.220;8.654;2022-09-29T02:40:15;6.50;;;3.93;;
5682;SDS011;2864;49.220;8.654;2022-09-29T02:43:02;7.97;;;5.03;;
5682;SDS011;2864;49.220;8.654;2022-09-29T02:51:55;8.70;;;4.90;;
5682;SDS011;2864;49.220;8.654;2022-09-29T02:54:28;8.07;;;5.30;;
5682;SDS011;2864;49.220;8.654;2022-09-29T02:57:16;8.70;;;4.60;;
5682;SDS011;2864;49.220;8.654;2022-09-29T03:00:08;10.00;;;5.23;;
5682;SDS011;2864;49.220;8.654;2022-09-29T03:02:36;9.83;;;4.97;;
5682;SDS011;2864;49.220;8.654;2022-09-29T03:05:04;10.07;;;4.90;;
5682;SDS011;2864;49.220;8.654;2022-09-29T03:07:32;8.07;;;4.87;;
5682;SDS011;2864;49.220;8.654;2022-09-29T03:09:58;8.00;;;4.80;;
5682;SDS011;2864;49.220;8.654;2022-09-29T03:12:23;7.50;;;4.63;;
5682;SDS011;2864;49.220;8.654;2022-09-29T03:14:49;8.50;;;4.40;;
5682;SDS011;2864;49.220;8.654;2022-09-29T03:17:14;7.07;;;4.90;;
5682;SDS011;2864;49.220;8.654;2022-09-29T03:19:40;8.17;;;4.23;;
5682;SDS011;2864;49.220;8.654;2022-09-29T03:22:05;9.87;;;4.60;;
5682;SDS011;2864;49.220;8.654;2022-09-29T03:24:31;6.37;;;4.40;;
5682;SDS011;2864;49.220;8.654;2022-09-29T03:26:56;9.33;;;5.10;;
5682;SDS011;2864;49.220;8.654;2022-09-29T03:29:22;7.43;;;4.87;;
5682;SDS011;2864;49.220;8.654;2022-09-29T03:31:47;7.23;;;5.00;;
5682;SDS011;2864;49.220;8.654;2022-09-29T03:34:37;8.47;;;5.10;;
5682;SDS011;2864;49.220;8.654;2022-09-29T03:37:02;9.53;;;5.47;;
5682;SDS011;2864;49.220;8.654;2022-09-29T03:39:28;8.40;;;5.60;;
5682;SDS011;2864;49.220;8.654;2022-09-29T03:41:53;9.57;;;5.93;;
5682;SDS011;2864;49.220;8.654;2022-09-29T03:44:19;12.77;;;6.73;;
5682;SDS011;2864;49.220;8.654;2022-09-29T03:46:50;9.53;;;6.60;;
5682;SDS011;2864;49.220;8.654;2022-09-29T03:49:16;7.00;;;5.63;;
5682;SDS011;2864;49.220;8.654;2022-09-29T03:51:42;11.20;;;6.47;;
5682;SDS011;2864;49.220;8.654;2022-09-29T03:54:08;13.10;;;7.47;;
5682;SDS011;2864;49.220;8.654;2022-09-29T03:56:35;14.97;;;9.10;;
5682;SDS011;2864;49.220;8.654;2022-09-29T03:59:01;19.20;;;9.17;;
5682;SDS011;2864;49.220;8.654;2022-09-29T04:01:29;10.63;;;6.87;;
5682;SDS011;2864;49.220;8.654;2022-09-29T04:03:56;10.60;;;6.10;;
5682;SDS011;2864;49.220;8.654;2022-09-29T04:06:22;5.87;;;5.10;;
5682;SDS011;2864;49.220;8.654;2022-09-29T04:08:47;8.30;;;5.30;;
5682;SDS011;2864;49.220;8.654;2022-09-29T04:11:13;7.80;;;5.60;;
5682;SDS011;2864;49.220;8.654;2022-09-29T04:13:39;11.60;;;8.30;;
5682;SDS011;2864;49.220;8.654;2022-09-29T04:16:05;10.70;;;8.13;;
5682;SDS011;2864;49.220;8.654;2022-09-29T04:18:30;12.77;;;7.20;;
5682;SDS011;2864;49.220;8.654;2022-09-29T04:20:57;12.07;;;6.77;;
5682;SDS011;2864;49.220;8.654;2022-09-29T04:23:25;12.00;;;5.63;;
5682;SDS011;2864;49.220;8.654;2022-09-29T04:25:54;8.17;;;5.00;;
5682;SDS011;2864;49.220;8.654;2022-09-29T04:28:21;6.87;;;5.13;;
5682;SDS011;2864;49.220;8.654;2022-09-29T04:30:47;7.03;;;4.97;;
5682;SDS011;2864;49.220;8.654;2022-09-29T04:33:13;12.03;;;5.73;;
5682;SDS011;2864;49.220;8.654;2022-09-29T04:35:38;13.63;;;5.50;;
5682;SDS011;2864;49.220;8.654;2022-09-29T04:38:04;8.80;;;5.37;;
5682;SDS011;2864;49.220;8.654;2022-09-29T04:40:32;11.10;;;6.53;;
5682;SDS011;2864;49.220;8.654;2022-09-29T04:42:58;10.30;;;6.30;;
5682;SDS011;2864;49.220;8.654;2022-09-29T04:45:23;9.10;;;6.23;;
5682;SDS011;2864;49.220;8.654;2022-09-29T04:47:49;7.63;;;5.77;;
5682;SDS011;2864;49.220;8.654;2022-09-29T04:50:14;12.90;;;6.40;;
5682;SDS011;2864;49.220;8.654;2022-09-29T04:52:41;11.87;;;7.23;;
5682;SDS011;2864;49.220;8.654;2022-09-29T04:55:08;9.70;;;6.87;;
5682;SDS011;2864;49.220;8.654;2022-09-29T04:57:35;12.37;;;7.27;;
5682;SDS011;2864;49.220;8.654;2022-09-29T05:00:03;11.83;;;6.53;;
5682;SDS011;2864;49.220;8.654;2022-09-29T05:02:30;12.43;;;6.87;;
5682;SDS011;2864;49.220;8.654;2022-09-29T05:04:56;15.43;;;7.27;;
5682;SDS011;2864;49.220;8.654;2022-09-29T05:07:22;8.40;;;6.20;;
5682;SDS011;2864;49.220;8.654;2022-09-29T05:09:47;12.70;;;6.83;;
5682;SDS011;2864;49.220;8.654;2022-09-29T05:12:13;11.33;;;6.93;;
5682;SDS011;2864;49.220;8.654;2022-09-29T05:14:38;10.97;;;6.93;;
5682;SDS011;2864;49.220;8.654;2022-09-29T05:17:04;14.83;;;7.90;;
5682;SDS011;2864;49.220;8.654;2022-09-29T05:19:29;12.53;;;8.30;;
5682;SDS011;2864;49.220;8.654;2022-09-29T05:21:57;11.97;;;7.67;;
5682;SDS011;2864;49.220;8.654;2022-09-29T05:24:23;17.43;;;9.50;;
5682;SDS011;2864;49.220;8.654;2022-09-29T05:26:49;14.40;;;9.00;;
5682;SDS011;2864;49.220;8.654;2022-09-29T05:29:15;11.83;;;8.10;;
5682;SDS011;2864;49.220;8.654;2022-09-29T05:31:41;11.97;;;7.77;;
5682;SDS011;2864;49.220;8.654;2022-09-29T05:34:06;10.70;;;7.70;;
5682;SDS011;2864;49.220;8.654;2022-09-29T05:36:32;11.70;;;8.10;;
5682;SDS011;2864;49.220;8.654;2022-09-29T05:38:57;10.13;;;7.47;;
5682;SDS011;2864;49.220;8.654;2022-09-29T05:41:23;12.70;;;8.00;;
5682;SDS011;2864;49.220;8.654;2022-09-29T05:43:49;15.37;;;7.70;;
5682;SDS011;2864;49.220;8.654;2022-09-29T05:46:17;12.13;;;8.23;;
5682;SDS011;2864;49.220;8.654;2022-09-29T05:48:47;16.97;;;10.43;;
5682;SDS011;2864;49.220;8.654;2022-09-29T05:51:15;18.33;;;14.73;;
5682;SDS011;2864;49.220;8.654;2022-09-29T05:53:42;20.33;;;14.87;;
5682;SDS011;2864;49.220;8.654;2022-09-29T05:56:15;16.43;;;12.67;;
5682;SDS011;2864;49.220;8.654;2022-09-29T05:58:43;15.33;;;10.40;;
5682;SDS011;2864;49.220;8.654;2022-09-29T06:01:13;13.30;;;8.30;;
5682;SDS011;2864;49.220;8.654;2022-09-29T06:03:43;13.13;;;7.67;;
5682;SDS011;2864;49.220;8.654;2022-09-29T06:06:10;13.37;;;6.50;;
5682;SDS011;2864;49.220;8.654;2022-09-29T06:08:38;8.97;;;6.33;;
5682;SDS011;2864;49.220;8.654;2022-09-29T06:11:05;12.53;;;6.23;;
5682;SDS011;2864;49.220;8.654;2022-09-29T06:13:33;8.93;;;6.10;;
5682;SDS011;2864;49.220;8.654;2022-09-29T06:16:01;8.23;;;5.97;;
5682;SDS011;2864;49.220;8.654;2022-09-29T06:18:27;11.00;;;6.00;;
5682;SDS011;2864;49.220;8.654;2022-09-29T06:20:52;7.27;;;5.20;;
5682;SDS011;2864;49.220;8.654;2022-09-29T06:26:40;12.57;;;7.60;;
5682;SDS011;2864;49.220;8.654;2022-09-29T06:29:05;10.50;;;7.33;;
5682;SDS011;2864;49.220;8.654;2022-09-29T06:31:31;7.90;;;5.67;;
5682;SDS011;2864;49.220;8.654;2022-09-29T06:33:58;8.00;;;5.77;;
5682;SDS011;2864;49.220;8.654;2022-09-29T06:39:15;12.03;;;6.30;;
5682;SDS011;2864;49.220;8.654;2022-09-29T06:41:41;6.90;;;5.93;;
5682;SDS011;2864;49.220;8.654;2022-09-29T06:44:12;10.40;;;6.97;;
5682;SDS011;2864;49.220;8.654;2022-09-29T06:46:39;10.13;;;7.00;;
5682;SDS011;2864;49.220;8.654;2022-09-29T06:49:04;9.77;;;5.60;;
5682;SDS011;2864;49.220;8.654;2022-09-29T06:51:30;14.27;;;5.93;;
5682;SDS011;2864;49.220;8.654;2022-09-29T06:53:56;11.23;;;5.70;;
5682;SDS011;2864;49.220;8.654;2022-09-29T06:56:21;7.97;;;5.10;;
5682;SDS011;2864;49.220;8.654;2022-09-29T06:58:47;9.27;;;5.13;;
5682;SDS011;2864;49.220;8.654;2022-09-29T07:01:12;8.60;;;5.03;;
5682;SDS011;2864;49.220;8.654;2022-09-29T07:03:38;8.87;;;5.00;;
5682;SDS011;2864;49.220;8.654;2022-09-29T07:06:05;8.10;;;5.00;;
5682;SDS011;2864;49.220;8.654;2022-09-29T07:08:32;7.63;;;5.07;;
5682;SDS011;2864;49.220;8.654;2022-09-29T07:11:00;7.27;;;4.80;;
5682;SDS011;2864;49.220;8.654;2022-09-29T07:13:29;9.90;;;5.10;;
5682;SDS011;2864;49.220;8.654;2022-09-29T07:15:54;7.77;;;4.90;;
5682;SDS011;2864;49.220;8.654;2022-09-29T07:18:20;7.07;;;4.80;;
5682;SDS011;2864;49.220;8.654;2022-09-29T07:20:46;7.50;;;4.63;;
5682;SDS011;2864;49.220;8.654;2022-09-29T07:23:12;6.90;;;4.57;;
5682;SDS011;2864;49.220;8.654;2022-09-29T07:25:38;8.50;;;5.03;;
5682;SDS011;2864;49.220;8.654;2022-09-29T07:28:03;7.53;;;4.20;;
5682;SDS011;2864;49.220;8.654;2022-09-29T07:30:29;9.77;;;4.73;;
5682;SDS011;2864;49.220;8.654;2022-09-29T07:32:55;7.53;;;4.50;;
5682;SDS011;2864;49.220;8.654;2022-09-29T07:35:21;10.67;;;5.17;;
5682;SDS011;2864;49.220;8.654;2022-09-29T07:37:51;9.03;;;7.03;;
5682;SDS011;2864;49.220;8.654;2022-09-29T07:40:17;8.23;;;4.30;;
5682;SDS011;2864;49.220;8.654;2022-09-29T07:42:44;8.33;;;5.20;;
5682;SDS011;2864;49.220;8.654;2022-09-29T07:45:09;11.10;;;5.10;;
5682;SDS011;2864;49.220;8.654;2022-09-29T07:47:35;7.60;;;4.57;;
5682;SDS011;2864;49.220;8.654;2022-09-29T07:50:00;5.93;;;4.33;;
5682;SDS011;2864;49.220;8.654;2022-09-29T07:52:26;10.90;;;4.50;;
5682;SDS011;2864;49.220;8.654;2022-09-29T07:54:51;8.80;;;4.20;;
5682;SDS011;2864;49.220;8.654;2022-09-29T07:57:17;11.67;;;4.00;;
5682;SDS011;2864;49.220;8.654;2022-09-29T07:59:42;16.67;;;5.53;;
5682;SDS011;2864;49.220;8.654;2022-09-29T08:02:08;6.93;;;4.40;;
5682;SDS011;2864;49.220;8.654;2022-09-29T08:04:33;7.73;;;4.00;;
5682;SDS011;2864;49.220;8.654;2022-09-29T08:06:59;10.30;;;4.33;;
5682;SDS011;2864;49.220;8.654;2022-09-29T08:09:24;9.63;;;4.47;;
5682;SDS011;2864;49.220;8.654;2022-09-29T08:11:50;8.80;;;4.70;;
5682;SDS011;2864;49.220;8.654;2022-09-29T08:14:15;8.03;;;4.50;;
5682;SDS011;2864;49.220;8.654;2022-09-29T08:16:41;11.37;;;4.60;;
5682;SDS011;2864;49.220;8.654;2022-09-29T08:19:07;9.97;;;4.20;;
5682;SDS011;2864;49.220;8.654;2022-09-29T08:21:32;7.73;;;4.20;;
5682;SDS011;2864;49.220;8.654;2022-09-29T08:24:01;7.80;;;4.30;;
5682;SDS011;2864;49.220;8.654;2022-09-29T08:26:28;7.20;;;4.90;;
5682;SDS011;2864;49.220;8.654;2022-09-29T08:28:56;9.13;;;5.30;;
5682;SDS011;2864;49.220;8.654;2022-09-29T08:31:22;7.23;;;4.63;;
5682;SDS011;2864;49.220;8.654;2022-09-29T08:33:48;7.27;;;4.97;;
5682;SDS011;2864;49.220;8.654;2022-09-29T08:36:15;9.30;;;5.10;;
5682;SDS011;2864;49.220;8.654;2022-09-29T08:38:44;5.80;;;4.37;;
5682;SDS011;2864;49.220;8.654;2022-09-29T08:41:19;7.97;;;4.40;;
5682;SDS011;2864;49.220;8.654;2022-09-29T08:43:53;9.17;;;5.10;;
5682;SDS011;2864;49.220;8.654;2022-09-29T08:46:28;7.53;;;4.13;;
5682;SDS011;2864;49.220;8.654;2022-09-29T08:48:58;10.00;;;4.70;;
5682;SDS011;2864;49.220;8.654;2022-09-29T08:51:31;9.83;;;5.10;;
5682;SDS011;2864;49.220;8.654;2022-09-29T08:54:02;8.50;;;3.90;;
5682;SDS011;2864;49.220;8.654;2022-09-29T08:56:33;7.67;;;4.17;;
5682;SDS011;2864;49.220;8.654;2022-09-29T08:58:59;7.70;;;4.20;;
5682;SDS011;2864;49.220;8.654;2022-09-29T09:07:03;8.17;;;4.13;;
5682;SDS011;2864;49.220;8.654;2022-09-29T09:17:50;5.37;;;3.47;;
5682;SDS011;2864;49.220;8.654;2022-09-29T09:20:26;6.07;;;3.03;;
5682;SDS011;2864;49.220;8.654;2022-09-29T09:22:57;8.97;;;3.57;;
5682;SDS011;2864;49.220;8.654;2022-09-29T09:25:32;5.07;;;3.27;;
5682;SDS011;2864;49.220;8.654;2022-09-29T09:38:55;4.47;;;3.07;;
5682;SDS011;2864;49.220;8.654;2022-09-29T09:41:43;7.43;;;3.60;;
5682;SDS011;2864;49.220;8.654;2022-09-29T09:46:54;6.23;;;3.87;;
5682;SDS011;2864;49.220;8.654;2022-09-29T09:49:24;6.20;;;4.10;;
5682;SDS011;2864;49.220;8.654;2022-09-29T09:54:40;7.97;;;3.47;;
5682;SDS011;2864;49.220;8.654;2022-09-29T09:57:52;4.93;;;3.27;;
5682;SDS011;2864;49.220;8.654;2022-09-29T10:02:57;6.97;;;3.57;;
5682;SDS011;2864;49.220;8.654;2022-09-29T10:05:49;6.27;;;2.93;;
5682;SDS011;2864;49.220;8.654;2022-09-29T10:08:24;6.33;;;3.00;;
5682;SDS011;2864;49.220;8.654;2022-09-29T10:10:53;9.27;;;3.20;;
5682;SDS011;2864;49.220;8.654;2022-09-29T10:13:20;9.23;;;2.97;;
5682;SDS011;2864;49.220;8.654;2022-09-29T10:15:55;6.17;;;2.90;;
5682;SDS011;2864;49.220;8.654;2022-09-29T10:18:25;4.93;;;2.70;;
5682;SDS011;2864;49.220;8.654;2022-09-29T10:20:59;3.77;;;2.87;;
5682;SDS011;2864;49.220;8.654;2022-09-29T10:23:31;6.57;;;3.00;;
5682;SDS011;2864;49.220;8.654;2022-09-29T10:26:00;4.93;;;2.73;;
5682;SDS011;2864;49.220;8.654;2022-09-29T10:28:45;5.60;;;2.50;;
5682;SDS011;2864;49.220;8.654;2022-09-29T10:31:19;5.53;;;2.60;;
5682;SDS011;2864;49.220;8.654;2022-09-29T10:33:54;4.43;;;2.67;;
5682;SDS011;2864;49.220;8.654;2022-09-29T10:39:51;7.83;;;3.93;;
5682;SDS011;2864;49.220;8.654;2022-09-29T10:42:42;5.77;;;3.50;;
5682;SDS011;2864;49.220;8.654;2022-09-29T10:45:21;6.40;;;3.43;;
5682;SDS011;2864;49.220;8.654;2022-09-29T10:50:26;10.63;;;3.43;;
5682;SDS011;2864;49.220;8.654;2022-09-29T10:56:16;5.07;;;3.80;;
5682;SDS011;2864;49.220;8.654;2022-09-29T10:58:53;8.77;;;3.80;;
5682;SDS011;2864;49.220;8.654;2022-09-29T11:01:21;8.27;;;4.10;;
5682;SDS011;2864;49.220;8.654;2022-09-29T11:03:51;7.43;;;3.73;;
5682;SDS011;2864;49.220;8.654;2022-09-29T11:06:26;8.20;;;3.50;;
5682;SDS011;2864;49.220;8.654;2022-09-29T11:11:26;8.53;;;3.83;;
5682;SDS011;2864;49.220;8.654;2022-09-29T11:13:54;5.87;;;3.83;;
5682;SDS011;2864;49.220;8.654;2022-09-29T11:16:28;8.63;;;3.83;;
5682;SDS011;2864;49.220;8.654;2022-09-29T11:18:55;6.23;;;3.30;;
5682;SDS011;2864;49.220;8.654;2022-09-29T11:21:44;8.57;;;3.50;;
5682;SDS011;2864;49.220;8.654;2022-09-29T11:27:24;6.67;;;3.50;;
5682;SDS011;2864;49.220;8.654;2022-09-29T11:32:32;7.10;;;3.33;;
5682;SDS011;2864;49.220;8.654;2022-09-29T11:35:28;4.47;;;3.03;;
5682;SDS011;2864;49.220;8.654;2022-09-29T11:46:08;4.07;;;2.67;;
5682;SDS011;2864;49.220;8.654;2022-09-29T11:48:51;4.97;;;3.30;;
5682;SDS011;2864;49.220;8.654;2022-09-29T11:52:08;7.43;;;3.00;;
5682;SDS011;2864;49.220;8.654;2022-09-29T12:00:12;7.00;;;2.30;;
5682;SDS011;2864;49.220;8.654;2022-09-29T12:02:53;5.27;;;2.90;;
5682;SDS011;2864;49.220;8.654;2022-09-29T12:08:49;4.47;;;2.10;;
5682;SDS011;2864;49.220;8.654;2022-09-29T12:14:28;7.27;;;3.00;;
5682;SDS011;2864;49.220;8.654;2022-09-29T12:17:12;4.37;;;2.50;;
5682;SDS011;2864;49.220;8.654;2022-09-29T12:19:42;4.40;;;2.50;;
5682;SDS011;2864;49.220;8.654;2022-09-29T12:22:10;3.70;;;2.23;;
5682;SDS011;2864;49.220;8.654;2022-09-29T12:24:50;4.50;;;2.33;;
5682;SDS011;2864;49.220;8.654;2022-09-29T12:27:31;4.97;;;3.00;;
5682;SDS011;2864;49.220;8.654;2022-09-29T12:32:43;5.53;;;2.30;;
5682;SDS011;2864;49.220;8.654;2022-09-29T12:35:17;4.80;;;2.97;;
5682;SDS011;2864;49.220;8.654;2022-09-29T12:37:54;3.03;;;2.40;;
5682;SDS011;2864;49.220;8.654;2022-09-29T12:40:38;8.33;;;3.37;;
5682;SDS011;2864;49.220;8.654;2022-09-29T12:43:28;4.17;;;2.20;;
5682;SDS011;2864;49.220;8.654;2022-09-29T12:46:02;3.30;;;2.20;;
5682;SDS011;2864;49.220;8.654;2022-09-29T12:52:08;4.93;;;2.50;;
5682;SDS011;2864;49.220;8.654;2022-09-29T13:05:32;6.30;;;2.40;;
5682;SDS011;2864;49.220;8.654;2022-09-29T13:08:25;5.10;;;2.20;;
5682;SDS011;2864;49.220;8.654;2022-09-29T13:10:57;8.17;;;2.70;;
5682;SDS011;2864;49.220;8.654;2022-09-29T13:16:36;7.30;;;2.50;;
5682;SDS011;2864;49.220;8.654;2022-09-29T13:24:55;3.90;;;2.20;;
5682;SDS011;2864;49.220;8.654;2022-09-29T13:27:40;3.27;;;2.30;;
5682;SDS011;2864;49.220;8.654;2022-09-29T13:30:13;3.43;;;2.20;;
5682;SDS011;2864;49.220;8.654;2022-09-29T13:32:48;4.80;;;2.30;;
5682;SDS011;2864;49.220;8.654;2022-09-29T13:35:16;6.23;;;2.70;;
5682;SDS011;2864;49.220;8.654;2022-09-29T13:37:49;7.67;;;2.60;;
5682;SDS011;2864;49.220;8.654;2022-09-29T13:40:27;6.60;;;2.50;;
5682;SDS011;2864;49.220;8.654;2022-09-29T13:42:54;4.83;;;2.20;;
5682;SDS011;2864;49.220;8.654;2022-09-29T13:47:54;9.53;;;2.20;;
5682;SDS011;2864;49.220;8.654;2022-09-29T13:55:50;4.10;;;2.20;;
5682;SDS011;2864;49.220;8.654;2022-09-29T13:58:23;3.73;;;2.10;;
5682;SDS011;2864;49.220;8.654;2022-09-29T14:00:52;6.80;;;2.50;;
5682;SDS011;2864;49.220;8.654;2022-09-29T14:05:53;3.17;;;2.03;;
5682;SDS011;2864;49.220;8.654;2022-09-29T14:08:26;3.93;;;2.70;;
5682;SDS011;2864;49.220;8.654;2022-09-29T14:10:57;4.63;;;2.20;;
5682;SDS011;2864;49.220;8.654;2022-09-29T14:13:30;5.40;;;2.30;;
5682;SDS011;2864;49.220;8.654;2022-09-29T15:03:31;3.40;;;2.17;;
5682;SDS011;2864;49.220;8.654;2022-09-29T15:08:37;6.47;;;3.50;;
5682;SDS011;2864;49.220;8.654;2022-09-29T15:11:21;3.83;;;2.20;;
5682;SDS011;2864;49.220;8.654;2022-09-29T15:14:00;5.10;;;3.10;;
5682;SDS011;2864;49.220;8.654;2022-09-29T15:19:26;4.77;;;3.00;;
5682;SDS011;2864;49.220;8.654;2022-09-29T15:27:14;3.77;;;2.13;;
5682;SDS011;2864;49.220;8.654;2022-09-29T15:29:44;12.07;;;9.17;;
5682;SDS011;2864;49.220;8.654;2022-09-29T15:32:15;7.57;;;3.87;;
5682;SDS011;2864;49.220;8.654;2022-09-29T15:34:46;3.73;;;2.40;;
5682;SDS011;2864;49.220;8.654;2022-09-29T15:37:13;7.33;;;2.40;;
5682;SDS011;2864;49.220;8.654;2022-09-29T15:39:42;3.87;;;2.30;;
5682;SDS011;2864;49.220;8.654;2022-09-29T15:42:15;9.77;;;7.33;;
5682;SDS011;2864;49.220;8.654;2022-09-29T15:44:51;6.50;;;3.60;;
5682;SDS011;2864;49.220;8.654;2022-09-29T15:47:28;12.97;;;7.20;;
5682;SDS011;2864;49.220;8.654;2022-09-29T15:50:02;6.90;;;2.90;;
5682;SDS011;2864;49.220;8.654;2022-09-29T15:52:40;6.07;;;2.70;;
5682;SDS011;2864;49.220;8.654;2022-09-29T15:55:10;6.13;;;3.30;;
5682;SDS011;2864;49.220;8.654;2022-09-29T15:57:41;10.53;;;7.43;;
5682;SDS011;2864;49.220;8.654;2022-09-29T16:02:49;19.77;;;16.60;;
5682;SDS011;2864;49.220;8.654;2022-09-29T16:05:34;4.77;;;3.63;;
5682;SDS011;2864;49.220;8.654;2022-09-29T16:08:05;5.03;;;2.93;;
5682;SDS011;2864;49.220;8.654;2022-09-29T16:10:42;8.30;;;6.33;;
5682;SDS011;2864;49.220;8.654;2022-09-29T16:13:17;9.37;;;3.20;;
5682;SDS011;2864;49.220;8.654;2022-09-29T16:15:48;4.17;;;3.00;;
5682;SDS011;2864;49.220;8.654;2022-09-29T16:18:18;5.50;;;2.63;;
5682;SDS011;2864;49.220;8.654;2022-09-29T16:20:47;6.67;;;2.80;;
5682;SDS011;2864;49.220;8.654;2022-09-29T16:23:22;5.10;;;3.10;;
5682;SDS011;2864;49.220;8.654;2022-09-29T16:26:07;7.43;;;2.77;;
5682;SDS011;2864;49.220;8.654;2022-09-29T16:28:34;7.97;;;4.93;;
5682;SDS011;2864;49.220;8.654;2022-09-29T16:31:03;6.10;;;4.33;;
5682;SDS011;2864;49.220;8.654;2022-09-29T16:33:34;10.17;;;5.70;;
5682;SDS011;2864;49.220;8.654;2022-09-29T16:36:06;33.53;;;22.07;;
5682;SDS011;2864;49.220;8.654;2022-09-29T16:38:37;26.17;;;15.67;;
5682;SDS011;2864;49.220;8.654;2022-09-29T16:41:13;26.60;;;17.83;;
5682;SDS011;2864;49.220;8.654;2022-09-29T16:44:02;37.80;;;25.47;;
5682;SDS011;2864;49.220;8.654;2022-09-29T16:47:19;29.97;;;16.00;;
5682;SDS011;2864;49.220;8.654;2022-09-29T16:49:43;38.03;;;16.23;;
5682;SDS011;2864;49.220;8.654;2022-09-29T16:54:47;38.10;;;15.87;;
5682;SDS011;2864;49.220;8.654;2022-09-29T16:57:18;29.83;;;15.07;;
5682;SDS011;2864;49.220;8.654;2022-09-29T16:59:50;24.50;;;11.20;;
5682;SDS011;2864;49.220;8.654;2022-09-29T17:02:21;15.50;;;8.73;;
5682;SDS011;2864;49.220;8.654;2022-09-29T17:04:48;17.07;;;9.37;;
5682;SDS011;2864;49.220;8.654;2022-09-29T17:07:18;24.30;;;11.90;;
5682;SDS011;2864;49.220;8.654;2022-09-29T17:09:52;26.43;;;13.13;;
5682;SDS011;2864;49.220;8.654;2022-09-29T17:12:21;23.90;;;11.23;;
5682;SDS011;2864;49.220;8.654;2022-09-29T17:14:47;15.90;;;7.30;;
5682;SDS011;2864;49.220;8.654;2022-09-29T17:17:21;8.90;;;4.27;;
5682;SDS011;2864;49.220;8.654;2022-09-29T17:19:49;7.10;;;3.70;;
5682;SDS011;2864;49.220;8.654;2022-09-29T17:22:31;7.33;;;4.63;;
5682;SDS011;2864;49.220;8.654;2022-09-29T17:24:58;7.23;;;4.53;;
5682;SDS011;2864;49.220;8.654;2022-09-29T17:27:25;7.10;;;4.03;;
5682;SDS011;2864;49.220;8.654;2022-09-29T17:30:10;11.03;;;4.30;;
5682;SDS011;2864;49.220;8.654;2022-09-29T17:32:39;6.57;;;4.13;;
5682;SDS011;2864;49.220;8.654;2022-09-29T17:35:06;9.97;;;4.70;;
5682;SDS011;2864;49.220;8.654;2022-09-29T17:37:32;6.67;;;3.80;;
5682;SDS011;2864;49.220;8.654;2022-09-29T17:39:57;5.50;;;3.50;;
5682;SDS011;2864;49.220;8.654;2022-09-29T17:42:23;6.67;;;3.70;;
5682;SDS011;2864;49.220;8.654;2022-09-29T17:44:50;11.93;;;4.37;;
5682;SDS011;2864;49.220;8.654;2022-09-29T17:47:16;6.70;;;3.90;;
5682;SDS011;2864;49.220;8.654;2022-09-29T17:49:43;10.93;;;4.93;;
5682;SDS011;2864;49.220;8.654;2022-09-29T17:52:14;10.30;;;4.87;;
5682;SDS011;2864;49.220;8.654;2022-09-29T17:54:43;7.50;;;4.90;;
5682;SDS011;2864;49.220;8.654;2022-09-29T17:57:15;7.17;;;4.60;;
5682;SDS011;2864;49.220;8.654;2022-09-29T17:59:47;8.07;;;4.73;;
5682;SDS011;2864;49.220;8.654;2022-09-29T18:02:12;6.93;;;4.33;;
5682;SDS011;2864;49.220;8.654;2022-09-29T18:04:38;6.63;;;4.10;;
5682;SDS011;2864;49.220;8.654;2022-09-29T18:07:12;7.63;;;4.10;;
5682;SDS011;2864;49.220;8.654;2022-09-29T18:09:40;10.67;;;5.87;;
5682;SDS011;2864;49.220;8.654;2022-09-29T18:12:07;5.20;;;4.20;;
5682;SDS011;2864;49.220;8.654;2022-09-29T18:14:32;5.93;;;4.30;;
5682;SDS011;2864;49.220;8.654;2022-09-29T18:17:01;7.00;;;4.03;;
5682;SDS011;2864;49.220;8.654;2022-09-29T18:19:29;4.77;;;3.30;;
5682;SDS011;2864;49.220;8.654;2022-09-29T18:21:57;4.70;;;2.93;;
5682;SDS011;2864;49.220;8.654;2022-09-29T18:24:23;9.30;;;3.90;;
5682;SDS011;2864;49.220;8.654;2022-09-29T18:26:48;7.43;;;3.67;;
5682;SDS011;2864;49.220;8.654;2022-09-29T18:29:15;6.17;;;3.37;;
5682;SDS011;2864;49.220;8.654;2022-09-29T18:31:41;5.40;;;3.03;;
5682;SDS011;2864;49.220;8.654;2022-09-29T18:34:12;4.73;;;3.20;;
5682;SDS011;2864;49.220;8.654;2022-09-29T18:36:40;8.20;;;3.20;;
5682;SDS011;2864;49.220;8.654;2022-09-29T18:39:06;4.60;;;3.40;;
5682;SDS011;2864;49.220;8.654;2022-09-29T18:41:31;5.97;;;3.67;;
5682;SDS011;2864;49.220;8.654;2022-09-29T18:43:57;4.20;;;3.43;;
5682;SDS011;2864;49.220;8.654;2022-09-29T18:46:23;4.37;;;3.50;;
5682;SDS011;2864;49.220;8.654;2022-09-29T18:48:49;8.77;;;6.97;;
5682;SDS011;2864;49.220;8.654;2022-09-29T18:51:14;7.43;;;3.60;;
5682;SDS011;2864;49.220;8.654;2022-09-29T18:53:41;5.07;;;3.83;;
5682;SDS011;2864;49.220;8.654;2022-09-29T18:56:08;5.97;;;3.70;;
5682;SDS011;2864;49.220;8.654;2022-09-29T18:58:38;6.67;;;4.10;;
5682;SDS011;2864;49.220;8.654;2022-09-29T19:01:03;5.20;;;3.60;;
5682;SDS011;2864;49.220;8.654;2022-09-29T19:03:30;6.10;;;4.10;;
5682;SDS011;2864;49.220;8.654;2022-09-29T19:05:57;6.30;;;3.73;;
5682;SDS011;2864;49.220;8.654;2022-09-29T19:08:25;5.73;;;4.20;;